Time;durP1;ratioP1;P1;durP2;ratioP2;P2;SDS_P1;SDS_P2;PMS_P1;PMS_P2;Temp;Humidity;BMP_temperature;BMP_pressure;BME280_temperature;BME280_humidity;BME280_pressure;Samples;Min_cycle;Max_cycle;Signal;HPM_P1;HPM_P2
2023/10/12 00:01:57;;;;;;;13.43;9.10;;;;;;;15.08;100.00;99160.19;5095885;28;20023;-88
2023/10/12 00:04:43;;;;;;;16.20;9.18;;;;;;;15.36;100.00;99204.44;5096875;28;20027;-89
2023/10/12 00:07:15;;;;;;;14.75;8.90;;;;;;;15.34;100.00;99203.75;5115385;28;20028;-88
2023/10/12 00:09:47;;;;;;;15.55;9.23;;;;;;;15.23;100.00;99182.69;5096888;28;20467;-87
2023/10/12 00:12:14;;;;;;;13.32;8.45;;;;;;;15.36;100.00;99203.63;5097216;28;20047;-88
2023/10/12 00:14:41;;;;;;;18.17;8.63;;;;;;;15.41;100.00;99204.94;5096721;28;20039;-88
2023/10/12 00:17:07;;;;;;;13.75;8.80;;;;;;;15.39;100.00;99191.09;5096915;28;20024;-88
2023/10/12 00:19:32;;;;;;;15.02;9.82;;;;;;;15.24;100.00;99179.09;5096623;28;20026;-88
2023/10/12 00:22:02;;;;;;;15.05;9.05;;;;;;;15.43;100.00;99195.19;5096841;28;20087;-88
2023/10/12 00:24:28;;;;;;;16.20;9.82;;;;;;;15.44;100.00;99201.25;5096750;28;20152;-89
2023/10/12 00:26:54;;;;;;;15.63;10.05;;;;;;;15.32;100.00;99175.94;5096838;28;20447;-89
2023/10/12 00:29:19;;;;;;;15.32;10.52;;;;;;;15.35;100.00;99187.03;5096537;28;20387;-88
2023/10/12 00:31:47;;;;;;;13.20;8.57;;;;;;;15.36;100.00;99186.06;5115074;28;20024;-88
2023/10/12 00:34:14;;;;;;;15.60;8.98;;;;;;;15.32;100.00;99184.63;5096472;28;20668;-88
2023/10/12 00:36:41;;;;;;;14.45;8.95;;;;;;;15.33;100.00;99177.59;5096572;28;20051;-88
2023/10/12 00:39:09;;;;;;;12.32;8.75;;;;;;;14.79;100.00;99089.75;5114963;28;20113;-88
2023/10/12 00:41:45;;;;;;;13.27;8.13;;;;;;;15.28;100.00;99169.22;5096379;28;20527;-88
2023/10/12 00:44:18;;;;;;;13.93;9.00;;;;;;;15.42;100.00;99187.41;5096422;28;20043;-88
2023/10/12 00:49:23;;;;;;;17.13;9.00;;;;;;;15.21;100.00;99153.94;5114533;28;20386;-88
2023/10/12 00:52:07;;;;;;;14.07;8.88;;;;;;;15.33;100.00;99172.34;5096426;28;20107;-89
2023/10/12 00:57:03;;;;;;;14.73;8.80;;;;;;;15.37;100.00;99168.53;5114282;28;20046;-89
2023/10/12 00:59:34;;;;;;;13.20;8.15;;;;;;;15.19;100.00;99126.97;5095977;28;20060;-89
2023/10/12 01:02:08;;;;;;;16.42;8.57;;;;;;;15.26;100.00;99140.50;5096057;28;20031;-88
2023/10/12 01:04:37;;;;;;;15.55;8.20;;;;;;;15.27;100.00;99149.19;5095887;28;20031;-88
2023/10/12 01:07:06;;;;;;;12.98;8.10;;;;;;;15.32;100.00;99158.38;5096003;28;20023;-89
2023/10/12 01:09:45;;;;;;;14.43;8.82;;;;;;;15.28;100.00;99149.06;5095648;28;20050;-88
2023/10/12 01:12:14;;;;;;;16.02;8.07;;;;;;;15.19;100.00;99134.00;5096195;28;20123;-89
2023/10/12 01:14:47;;;;;;;16.05;8.82;;;;;;;15.19;100.00;99134.84;5095717;28;20035;-89
2023/10/12 01:17:29;;;;;;;15.25;8.60;;;;;;;15.00;100.00;99110.06;5095911;28;20027;-88
2023/10/12 01:19:55;;;;;;;11.15;8.15;;;;;;;14.95;100.00;99103.38;5095792;28;20479;-88
2023/10/12 01:22:27;;;;;;;15.13;8.63;;;;;;;15.11;100.00;99131.94;5095581;28;20500;-89
2023/10/12 01:27:21;;;;;;;13.70;8.75;;;;;;;15.02;100.00;99116.91;5113961;28;20032;-89
2023/10/12 01:29:47;;;;;;;15.27;9.32;;;;;;;15.02;100.00;99126.56;5095296;28;20032;-88
2023/10/12 01:34:44;;;;;;;16.23;8.48;;;;;;;14.58;100.00;99063.31;5113316;28;20031;-88
2023/10/12 01:37:28;;;;;;;14.70;8.50;;;;;;;14.65;100.00;99071.53;5095507;28;20106;-88
2023/10/12 01:45:31;;;;;;;12.55;9.00;;;;;;;14.95;100.00;99123.53;5113812;28;20065;-88
2023/10/12 01:48:07;;;;;;;13.82;8.93;;;;;;;14.91;100.00;99130.78;5095368;28;20604;-88
2023/10/12 01:50:33;;;;;;;12.85;8.55;;;;;;;14.78;100.00;99102.94;5113381;28;20027;-89
2023/10/12 01:53:00;;;;;;;14.32;9.38;;;;;;;14.82;100.00;99105.22;5095150;28;20088;-88
2023/10/12 01:55:29;;;;;;;16.63;9.55;;;;;;;14.58;100.00;99075.56;5094815;28;20157;-88
2023/10/12 01:57:55;;;;;;;16.17;9.23;;;;;;;14.27;100.00;99027.94;5113351;28;20028;-88
2023/10/12 02:00:32;;;;;;;17.85;10.20;;;;;;;14.53;100.00;99069.81;5095052;28;20023;-88
2023/10/12 02:03:02;;;;;;;13.98;9.18;;;;;;;14.73;100.00;99116.41;5095038;28;20019;-88
2023/10/12 02:05:31;;;;;;;14.07;8.57;;;;;;;14.71;100.00;99118.31;5094626;28;20036;-88
2023/10/12 02:07:57;;;;;;;13.80;9.32;;;;;;;14.57;100.00;99111.41;5094816;28;20027;-88
2023/10/12 02:10:24;;;;;;;13.60;9.73;;;;;;;14.58;100.00;99113.09;5095005;28;20650;-89
2023/10/12 02:12:51;;;;;;;16.65;9.27;;;;;;;14.33;100.00;99081.72;5094985;28;20036;-88
2023/10/12 02:15:17;;;;;;;14.82;10.13;;;;;;;14.56;100.00;99124.63;5094762;28;20084;-88
2023/10/12 02:17:42;;;;;;;14.75;9.50;;;;;;;14.53;100.00;99133.53;5094465;28;20031;-88
2023/10/12 02:20:11;;;;;;;13.77;8.93;;;;;;;14.41;100.00;99116.91;5094755;28;20015;-88
2023/10/12 02:22:37;;;;;;;15.55;9.75;;;;;;;14.47;100.00;99142.66;5112594;28;20031;-89
2023/10/12 02:25:17;;;;;;;14.73;9.35;;;;;;;14.35;100.00;99124.34;5094429;28;20024;-88
2023/10/12 02:27:54;;;;;;;16.63;9.25;;;;;;;14.35;100.00;99126.97;5094514;28;20058;-89
2023/10/12 02:30:21;;;;;;;12.90;9.43;;;;;;;14.38;100.00;99139.84;5094671;28;20058;-89
2023/10/12 02:32:46;;;;;;;13.45;10.27;;;;;;;14.28;100.00;99126.53;5094319;28;20228;-88
2023/10/12 02:35:14;;;;;;;17.15;9.88;;;;;;;14.33;100.00;99129.69;5094281;28;20024;-89
2023/10/12 02:37:39;;;;;;;14.65;9.27;;;;;;;14.23;100.00;99111.16;5112822;28;20370;-88
2023/10/12 02:40:12;;;;;;;14.90;10.45;;;;;;;14.23;100.00;99112.94;5094541;28;20026;-88
2023/10/12 02:42:41;;;;;;;15.07;9.70;;;;;;;14.34;100.00;99118.25;5094116;28;20031;-89
2023/10/12 02:45:17;;;;;;;17.05;9.27;;;;;;;14.32;100.00;99112.28;5094266;28;20023;-89
2023/10/12 02:47:45;;;;;;;16.95;10.30;;;;;;;14.39;100.00;99110.06;5093959;28;20055;-89
2023/10/12 02:52:37;;;;;;;17.75;9.55;;;;;;;14.50;100.00;99125.91;5112360;28;20036;-88
2023/10/12 02:58:24;;;;;;;12.50;8.23;;;;;;;14.38;100.00;99108.41;5029394;28;20029;-88
2023/10/12 03:00:55;;;;;;;12.90;9.32;;;;;;;14.47;100.00;99118.22;5029186;28;20065;-89
2023/10/12 03:06:00;;;;;;;13.68;8.80;;;;;;;14.53;100.00;99112.56;5029488;28;20053;-88
2023/10/12 03:08:31;;;;;;;16.23;9.52;;;;;;;14.56;100.00;99114.16;5029356;28;20025;-89
2023/10/12 03:13:34;;;;;;;15.45;9.57;;;;;;;14.42;100.00;99094.97;5029358;28;20030;-88
2023/10/12 03:18:36;;;;;;;19.67;9.45;;;;;;;14.36;100.00;99084.91;5029063;28;20029;-89
2023/10/12 03:21:11;;;;;;;12.63;8.85;;;;;;;14.49;100.00;99111.13;5029134;28;20041;-89
2023/10/12 03:23:38;;;;;;;12.95;8.98;;;;;;;14.23;100.00;99071.03;5028969;28;20036;-89
2023/10/12 03:26:06;;;;;;;12.80;9.18;;;;;;;14.40;100.00;99103.88;5029125;28;20041;-89
2023/10/12 03:28:36;;;;;;;14.25;8.82;;;;;;;14.38;100.00;99111.03;5028892;28;20119;-89
2023/10/12 03:33:56;;;;;;;11.98;9.02;;;;;;;14.35;100.00;99103.38;5049140;28;20590;-88
2023/10/12 03:36:25;;;;;;;11.18;7.75;;;;;;;14.29;100.00;99095.97;5033871;28;20044;-89
2023/10/12 03:52:19;;;;;;;14.50;11.10;;;;;;;14.14;100.00;99095.25;4973988;28;20113;-89
2023/10/12 03:57:45;;;;;;;15.20;9.90;;;;;;;14.12;100.00;99097.97;4973857;28;20038;-88
2023/10/12 04:05:21;;;;;;;20.65;11.45;;;;;;;14.12;100.00;99099.78;4973827;28;20038;-87
2023/10/12 04:10:59;;;;;;;18.20;9.85;;;;;;;14.06;100.00;99093.16;5000639;28;20041;-89
2023/10/12 04:14:09;;;;;;;9.80;8.70;;;;;;;13.98;100.00;99074.53;5032442;28;20483;-89
2023/10/12 04:19:09;;;;;;;13.88;8.98;;;;;;;14.02;100.00;99096.09;5032359;28;20569;-89
2023/10/12 04:21:33;;;;;;;12.30;9.43;;;;;;;13.93;100.00;99095.78;5028506;28;20057;-89
2023/10/12 04:28:58;;;;;;;12.60;9.10;;;;;;;13.93;100.00;99100.19;5115709;28;20036;-88
2023/10/12 04:34:08;;;;;;;13.88;9.27;;;;;;;13.75;100.00;99078.75;5114913;28;20027;-89
2023/10/12 04:39:16;;;;;;;12.55;9.18;;;;;;;13.91;100.00;99100.31;5115057;28;20107;-89
2023/10/12 04:47:06;;;;;;;12.38;7.97;;;;;;;14.03;100.00;99105.63;5114473;28;20043;-88
2023/10/12 04:57:38;;;;;;;17.77;7.93;;;;;;;14.30;100.00;99105.50;5115007;28;20122;-89
2023/10/12 05:08:03;;;;;;;11.75;7.97;;;;;;;14.50;100.00;99130.31;5031598;28;20033;-88
2023/10/12 05:13:06;;;;;;;16.48;8.30;;;;;;;14.41;100.00;99109.03;5031349;28;20085;-89
2023/10/12 05:18:43;;;;;;;11.93;8.13;;;;;;;14.45;100.00;99120.09;4972363;28;20038;-89
2023/10/12 05:21:08;;;;;;;17.23;8.05;;;;;;;14.50;100.00;99128.53;4988566;28;20166;-88
2023/10/12 05:23:34;;;;;;;13.30;7.20;;;;;;;14.47;100.00;99128.72;4955959;28;20136;-88
2023/10/12 05:28:32;;;;;;;12.55;8.38;;;;;;;14.38;100.00;99114.47;4972140;28;20082;-88
2023/10/12 05:36:09;;;;;;;14.93;8.35;;;;;;;14.54;100.00;99143.09;4971857;28;20042;-88
2023/10/12 05:38:39;;;;;;;18.48;8.38;;;;;;;14.53;100.00;99140.56;4955728;28;20042;-88
2023/10/12 05:41:08;;;;;;;16.55;8.77;;;;;;;14.59;100.00;99148.84;4971813;28;20038;-88
2023/10/12 05:43:38;;;;;;;13.55;8.32;;;;;;;14.54;100.00;99130.00;4971761;28;20070;-88
2023/10/12 05:46:09;;;;;;;13.20;8.40;;;;;;;14.59;100.00;99145.38;5009020;28;20033;-88
2023/10/12 05:48:36;;;;;;;13.77;8.57;;;;;;;14.57;100.00;99142.03;5024920;28;20548;-88
2023/10/12 05:51:04;;;;;;;12.63;8.15;;;;;;;14.54;100.00;99142.22;5095198;28;20106;-88
2023/10/12 05:53:29;;;;;;;11.38;8.05;;;;;;;14.56;100.00;99141.19;5095256;28;20508;-88
2023/10/12 05:55:56;;;;;;;12.73;8.35;;;;;;;14.67;100.00;99156.16;5094723;28;20079;-88
2023/10/12 05:58:22;;;;;;;15.35;9.65;;;;;;;14.50;100.00;99117.22;5094352;28;20034;-88
2023/10/12 06:00:52;;;;;;;13.70;9.05;;;;;;;14.72;100.00;99151.41;5094680;28;20032;-89
2023/10/12 06:03:20;;;;;;;14.50;9.02;;;;;;;14.80;100.00;99166.59;5094802;28;20498;-89
2023/10/12 06:05:47;;;;;;;14.85;9.48;;;;;;;14.87;100.00;99173.06;5094759;28;20088;-89
2023/10/12 06:08:16;;;;;;;16.38;9.70;;;;;;;14.87;100.00;99162.56;5094910;28;20024;-88
2023/10/12 06:10:42;;;;;;;14.73;9.57;;;;;;;14.66;100.00;99123.00;5094703;28;20042;-88
2023/10/12 06:13:09;;;;;;;11.93;9.05;;;;;;;15.05;100.00;99187.50;5094954;28;20032;-89
2023/10/12 06:15:42;;;;;;;18.38;9.40;;;;;;;15.11;100.00;99184.41;5094751;28;20027;-88
2023/10/12 06:18:15;;;;;;;11.60;8.80;;;;;;;15.20;100.00;99186.34;5113089;28;20020;-89
2023/10/12 06:20:41;;;;;;;13.98;8.70;;;;;;;15.20;100.00;99185.53;5094480;28;20084;-89
2023/10/12 06:23:13;;;;;;;12.90;9.52;;;;;;;15.32;100.00;99184.63;5094692;28;20035;-89
2023/10/12 06:25:39;;;;;;;19.35;10.05;;;;;;;15.32;100.00;99184.63;5094488;28;20232;-89
2023/10/12 06:28:16;;;;;;;14.20;9.00;;;;;;;15.39;100.00;99193.72;5069278;28;20507;-89
2023/10/12 06:30:43;;;;;;;15.98;9.40;;;;;;;15.47;100.00;99195.81;5052621;28;20036;-89
2023/10/12 06:33:13;;;;;;;14.48;9.40;;;;;;;15.51;100.00;99197.25;5052899;28;20039;-88
2023/10/12 06:36:01;;;;;;;16.90;9.57;;;;;;;15.33;100.00;99148.72;5052824;28;20106;-89
2023/10/12 06:46:45;;;;;;;17.55;8.05;;;;;;;15.75;100.00;99207.72;5069304;28;20035;-88
2023/10/12 06:49:17;;;;;;;13.63;8.57;;;;;;;15.76;100.00;99204.16;5052848;28;20463;-89
2023/10/12 06:51:43;;;;;;;14.45;8.57;;;;;;;15.70;100.00;99191.47;5052636;28;20028;-89
2023/10/12 06:54:19;;;;;;;18.17;9.52;;;;;;;15.86;100.00;99214.81;5052630;28;20478;-89
2023/10/12 06:56:51;;;;;;;15.23;8.20;;;;;;;15.83;100.00;99204.53;5052447;28;20041;-89
2023/10/12 07:04:18;;;;;;;13.73;8.85;;;;;;;15.74;100.00;99176.34;5092122;28;20074;-88
2023/10/12 07:06:56;;;;;;;17.65;10.23;;;;;;;16.15;100.00;99234.44;5073864;28;20134;-88
2023/10/12 07:09:27;;;;;;;15.50;8.93;;;;;;;16.25;100.00;99233.75;5074060;28;20505;-88
2023/10/12 07:11:52;;;;;;;11.88;9.70;;;;;;;16.42;100.00;99249.88;5077681;28;20301;-88
2023/10/12 07:14:30;;;;;;;12.77;8.70;;;;;;;16.57;100.00;99241.78;5077800;28;20024;-88
2023/10/12 07:16:56;;;;;;;19.95;10.35;;;;;;;16.76;100.00;99255.19;5077747;28;20071;-89
2023/10/12 07:19:24;;;;;;;16.73;11.13;;;;;;;16.82;100.00;99257.34;5077860;28;20024;-89
2023/10/12 07:21:53;;;;;;;11.48;8.00;;;;;;;16.87;100.00;99265.69;5077491;28;20118;-88
2023/10/12 07:24:19;;;;;;;12.13;8.50;;;;;;;16.67;100.00;99232.19;5077738;28;20085;-89
2023/10/12 07:26:48;;;;;;;11.65;8.43;;;;;;;16.99;100.00;99274.44;5077716;28;20036;-89
2023/10/12 07:29:19;;;;;;;19.45;9.35;;;;;;;16.84;100.00;99225.66;5077856;28;20123;-89
2023/10/12 07:31:48;;;;;;;16.52;9.40;;;;;;;17.42;100.00;99279.72;5077749;28;20794;-89
2023/10/12 07:34:15;;;;;;;20.77;9.55;;;;;;;17.73;100.00;99276.38;5077619;28;20506;-89
2023/10/12 07:41:55;;;;;;;12.75;7.97;;;;;;;18.26;100.00;99287.75;5095634;28;20078;-88
2023/10/12 07:44:22;;;;;;;11.23;7.70;;;;;;;18.26;100.00;99285.13;5077343;28;20024;-89
2023/10/12 07:46:48;;;;;;;23.75;7.30;;;;;;;18.12;100.00;99277.56;5076763;28;20131;-88
2023/10/12 07:57:18;;;;;;;12.70;7.20;;;;;;;17.73;100.00;99294.81;5115752;28;20032;-89
2023/10/12 08:02:59;;;;;;;11.43;7.60;;;;;;;17.66;100.00;99313.75;5115657;28;20537;-89
2023/10/12 08:13:14;;;;;;;14.05;8.10;;;;;;;17.40;100.00;99296.59;5097165;28;20024;-89
2023/10/12 08:15:55;;;;;;;12.10;7.55;;;;;;;17.59;100.00;99331.00;5076744;28;20032;-89
2023/10/12 08:24:04;;;;;;;13.48;7.10;;;;;;;17.60;100.00;99329.22;5094893;28;20123;-89
2023/10/12 08:26:47;;;;;;;10.02;6.63;;;;;;;17.63;100.00;99328.97;5076584;28;20051;-88
2023/10/12 08:30:11;;;;;;;12.60;7.00;;;;;;;17.76;100.00;99345.50;5076235;28;20026;-87
2023/10/12 08:44:59;;;;;;;12.40;7.68;;;;;;;17.87;100.00;99357.81;5112010;28;20118;-88
2023/10/12 08:52:28;;;;;;;11.23;8.13;;;;;;;17.74;100.00;99357.97;5114680;28;20035;-89
2023/10/12 08:55:03;;;;;;;12.15;6.85;;;;;;;17.77;100.00;99359.50;5095648;28;20052;-88
2023/10/12 08:57:56;;;;;;;11.68;6.63;;;;;;;17.83;100.00;99351.94;5096248;28;20031;-88
2023/10/12 09:03:00;;;;;;;13.05;7.35;;;;;;;18.05;100.00;99361.56;5093747;28;20633;-88
2023/10/12 09:05:30;;;;;;;11.25;6.18;;;;;;;18.13;100.00;99372.31;5076036;28;20486;-88
2023/10/12 09:11:02;;;;;;;10.77;6.60;;;;;;;18.26;100.00;99376.56;5010624;28;20485;-88
2023/10/12 09:13:35;;;;;;;8.93;6.47;;;;;;;18.23;100.00;99379.44;4995097;28;20030;-89
2023/10/12 09:16:07;;;;;;;11.57;6.78;;;;;;;18.07;100.00;99356.97;4999800;28;20045;-89
2023/10/12 09:18:43;;;;;;;10.63;6.85;;;;;;;18.02;100.00;99350.41;5014527;28;20037;-89
2023/10/12 09:26:47;;;;;;;13.32;7.13;;;;;;;18.13;100.00;99374.94;5031327;28;20098;-88
2023/10/12 09:29:23;;;;;;;12.27;7.13;;;;;;;17.71;100.00;99300.22;5030778;28;20443;-88
2023/10/12 09:34:44;;;;;;;15.95;6.95;;;;;;;18.07;100.00;99380.69;5029792;28;20087;-88
2023/10/12 09:37:16;;;;;;;9.00;6.45;;;;;;;18.13;100.00;99387.28;5013799;28;20043;-88
2023/10/12 09:39:42;;;;;;;11.68;7.03;;;;;;;18.07;100.00;99383.34;5014128;28;20035;-89
2023/10/12 09:42:19;;;;;;;15.48;7.05;;;;;;;18.13;100.00;99396.03;5030276;28;20043;-88
2023/10/12 09:44:50;;;;;;;12.10;6.97;;;;;;;18.14;100.00;99399.50;5030649;28;20026;-89
2023/10/12 09:47:23;;;;;;;15.77;7.67;;;;;;;18.13;100.00;99409.22;5040219;28;20044;-89
2023/10/12 09:49:55;;;;;;;14.45;7.18;;;;;;;18.14;100.00;99415.31;5095129;28;20045;-89
2023/10/12 09:52:24;;;;;;;11.43;6.57;;;;;;;18.18;100.00;99417.56;5095439;28;20035;-89
2023/10/12 09:54:57;;;;;;;12.90;6.97;;;;;;;18.23;100.00;99425.09;5094956;28;20510;-89
2023/10/12 09:57:26;;;;;;;11.82;7.35;;;;;;;18.21;100.00;99424.41;5095332;28;20111;-89
2023/10/12 09:59:59;;;;;;;11.30;7.63;;;;;;;18.16;100.00;99424.78;5094933;28;20024;-89
2023/10/12 10:02:30;;;;;;;13.63;7.68;;;;;;;18.13;100.00;99419.75;5095312;28;20423;-89
2023/10/12 10:07:58;;;;;;;12.75;7.78;;;;;;;18.10;100.00;99424.44;5030244;28;20026;-88
2023/10/12 10:10:32;;;;;;;11.68;7.63;;;;;;;18.11;100.00;99423.47;5013677;28;20043;-88
2023/10/12 10:13:00;;;;;;;9.40;7.07;;;;;;;17.52;100.00;99329.81;5013318;28;20107;-88
2023/10/12 10:15:36;;;;;;;10.60;8.15;;;;;;;17.90;100.00;99399.69;5013400;28;20040;-88
2023/10/12 10:18:04;;;;;;;13.07;7.68;;;;;;;18.03;100.00;99426.72;5013206;28;20037;-88
2023/10/12 10:23:01;;;;;;;16.50;8.13;;;;;;;17.99;100.00;99419.19;5029740;28;20034;-88
2023/10/12 10:25:34;;;;;;;;;;;;;;;17.99;100.00;99430.56;5013754;28;20045;-88
2023/10/12 10:28:10;;;;;;;12.93;7.30;;;;;;;17.85;100.00;99405.31;5013020;28;20368;-88
2023/10/12 10:30:49;;;;;;;14.75;7.32;;;;;;;17.99;100.00;99422.66;5013243;28;20061;-88
2023/10/12 10:33:20;;;;;;;11.07;7.47;;;;;;;18.03;100.00;99417.97;5013037;28;20116;-88
2023/10/12 10:35:58;;;;;;;;;;;;;;;18.04;100.00;99432.84;5013520;28;20030;-88
2023/10/12 10:38:32;;;;;;;9.75;6.68;;;;;;;18.04;100.00;99424.94;5013065;28;20396;-89
2023/10/12 10:41:07;;;;;;;10.68;7.88;;;;;;;18.10;100.00;99425.25;5029347;28;20039;-88
2023/10/12 10:43:37;;;;;;;12.48;7.45;;;;;;;18.14;100.00;99425.84;5030223;28;20091;-89
2023/10/12 10:46:13;;;;;;;12.90;7.45;;;;;;;18.12;100.00;99423.34;5093636;28;20367;-88
2023/10/12 10:48:49;;;;;;;13.43;8.10;;;;;;;17.90;100.00;99395.25;5094157;28;20031;-88
2023/10/12 10:51:19;;;;;;;13.80;7.32;;;;;;;17.71;100.00;99360.81;5112515;28;20031;-88
2023/10/12 10:53:52;;;;;;;12.52;7.88;;;;;;;18.10;100.00;99433.16;5112308;28;20110;-88
2023/10/12 10:56:32;;;;;;;11.40;6.75;;;;;;;18.00;100.00;99418.25;5093482;28;20499;-88
2023/10/12 10:58:59;;;;;;;14.88;7.60;;;;;;;17.95;100.00;99411.53;5073659;28;20075;-89
2023/10/12 11:01:26;;;;;;;10.18;7.45;;;;;;;17.99;100.00;99420.00;5073703;28;20472;-88
2023/10/12 11:03:52;;;;;;;13.95;8.43;;;;;;;17.93;100.00;99412.63;5074008;28;20028;-88
2023/10/12 11:06:21;;;;;;;14.25;8.65;;;;;;;18.03;100.00;99423.25;5073701;28;20388;-89
2023/10/12 11:09:05;;;;;;;15.82;9.23;;;;;;;17.98;100.00;99420.16;5073937;28;20035;-89
2023/10/12 11:11:37;;;;;;;17.17;8.57;;;;;;;18.03;100.00;99426.72;5073882;28;20119;-89
2023/10/12 11:14:04;;;;;;;17.58;9.05;;;;;;;18.02;100.00;99429.47;5073794;28;20051;-90
2023/10/12 11:16:30;;;;;;;16.15;9.48;;;;;;;17.97;100.00;99427.22;5073884;28;20028;-89
2023/10/12 11:18:57;;;;;;;12.23;8.77;;;;;;;17.67;100.00;99402.34;5073854;28;20042;-89
2023/10/12 11:21:25;;;;;;;14.07;8.48;;;;;;;17.77;100.00;99430.63;5073495;28;20032;-89
2023/10/12 11:23:57;;;;;;;14.57;9.07;;;;;;;17.64;100.00;99434.19;5073705;28;20043;-89
2023/10/12 11:26:22;;;;;;;11.63;8.30;;;;;;;17.54;100.00;99421.88;5073306;28;20020;-89
2023/10/12 11:29:04;;;;;;;13.18;8.35;;;;;;;17.39;100.00;99405.47;5073834;28;20039;-89
2023/10/12 11:31:30;;;;;;;16.27;8.68;;;;;;;17.40;100.00;99420.31;5073794;28;20031;-89
2023/10/12 11:33:58;;;;;;;14.38;9.02;;;;;;;17.29;100.00;99401.91;5073622;28;20028;-88
2023/10/12 11:36:24;;;;;;;14.27;8.93;;;;;;;17.39;100.00;99416.84;5073337;28;20509;-89
2023/10/12 11:38:59;;;;;;;11.32;7.93;;;;;;;17.41;100.00;99433.38;5073682;28;20078;-89
2023/10/12 11:41:25;;;;;;;14.85;8.85;;;;;;;17.37;100.00;99437.22;5073725;28;20490;-89
2023/10/12 11:43:53;;;;;;;13.77;9.20;;;;;;;17.17;100.00;99404.53;5073607;28;20072;-89
2023/10/12 11:46:19;;;;;;;15.68;9.13;;;;;;;16.92;100.00;99373.19;5073331;28;20075;-89
2023/10/12 11:49:00;;;;;;;13.48;9.77;;;;;;;16.93;100.00;99372.22;5073439;28;20394;-89
2023/10/12 11:51:26;;;;;;;17.48;9.38;;;;;;;17.29;100.00;99434.34;5073373;28;20032;-89
2023/10/12 11:53:53;;;;;;;17.27;8.85;;;;;;;17.15;100.00;99421.38;5073548;28;20028;-88
2023/10/12 11:56:22;;;;;;;13.15;8.45;;;;;;;17.18;100.00;99429.06;5073231;28;20043;-88
2023/10/12 11:58:55;;;;;;;13.15;8.00;;;;;;;17.16;100.00;99412.56;5076851;28;20020;-88
2023/10/12 12:01:33;;;;;;;14.40;8.43;;;;;;;17.21;100.00;99434.91;5076731;28;20310;-89
2023/10/12 12:03:59;;;;;;;13.90;7.13;;;;;;;17.24;100.00;99438.28;5076913;28;20036;-89
2023/10/12 12:06:26;;;;;;;14.95;7.88;;;;;;;17.20;100.00;99429.78;5076778;28;20110;-89
2023/10/12 12:08:56;;;;;;;11.43;7.75;;;;;;;17.21;100.00;99424.41;5076846;28;20020;-89
2023/10/12 12:11:31;;;;;;;11.65;7.97;;;;;;;17.18;100.00;99427.25;5076765;28;20071;-89
2023/10/12 12:13:57;;;;;;;11.32;7.93;;;;;;;17.12;100.00;99417.22;5076591;28;20028;-89
2023/10/12 12:16:22;;;;;;;10.05;8.38;;;;;;;16.91;100.00;99380.25;5076312;28;20035;-89
2023/10/12 12:18:52;;;;;;;11.00;8.80;;;;;;;17.09;100.00;99427.13;5076823;28;20027;-89
2023/10/12 12:21:29;;;;;;;18.42;14.98;;;;;;;16.94;100.00;99405.50;5076523;28;20059;-89
2023/10/12 12:24:03;;;;;;;15.82;13.57;;;;;;;17.11;100.00;99438.41;5076712;28;20028;-89
2023/10/12 12:26:33;;;;;;;15.95;8.85;;;;;;;17.07;100.00;99422.00;5076666;28;20479;-89
2023/10/12 12:29:05;;;;;;;11.60;8.00;;;;;;;17.07;100.00;99423.81;5076751;28;20024;-89
2023/10/12 12:31:32;;;;;;;13.55;7.65;;;;;;;17.05;100.00;99430.97;5076712;28;20380;-88
2023/10/12 12:33:58;;;;;;;9.50;6.75;;;;;;;17.05;100.00;99430.97;5076492;28;20027;-89
2023/10/12 12:36:24;;;;;;;9.80;6.40;;;;;;;17.01;100.00;99429.53;5069412;28;20025;-88
2023/10/12 12:38:57;;;;;;;10.35;6.68;;;;;;;16.76;100.00;99402.44;5069946;28;20077;-89
2023/10/12 12:41:23;;;;;;;9.32;6.10;;;;;;;16.80;100.00;99414.41;5064565;28;20151;-88
2023/10/12 12:43:50;;;;;;;8.07;5.63;;;;;;;16.62;100.00;99387.69;5056321;28;20028;-88
2023/10/12 12:46:17;;;;;;;9.40;6.65;;;;;;;16.90;100.00;99444.34;5055997;28;20024;-88
2023/10/12 12:48:46;;;;;;;8.00;5.75;;;;;;;16.83;100.00;99424.72;5056106;28;20357;-89
2023/10/12 12:51:13;;;;;;;6.43;5.68;;;;;;;16.83;100.00;99423.88;5055789;28;20124;-89
2023/10/12 12:53:39;;;;;;;9.18;6.45;;;;;;;16.79;100.00;99423.28;5055741;28;20373;-87
2023/10/12 12:56:05;;;;;;;8.50;6.03;;;;;;;16.87;100.00;99430.59;5055771;28;20101;-88
2023/10/12 12:58:36;;;;;;;7.75;5.47;;;;;;;16.86;100.00;99428.91;5055926;28;20407;-89
2023/10/12 13:01:01;;;;;;;6.50;4.88;;;;;;;16.86;100.00;99434.19;5055976;28;20392;-89
2023/10/12 13:03:28;;;;;;;11.93;5.72;;;;;;;16.83;100.00;99442.28;5055769;28;20032;-89
2023/10/12 13:05:54;;;;;;;8.18;6.35;;;;;;;16.82;100.00;99444.09;5055804;28;20430;-89
2023/10/12 13:08:19;;;;;;;7.63;5.63;;;;;;;16.79;100.00;99444.31;5055194;28;20036;-89
2023/10/12 13:10:44;;;;;;;9.05;5.72;;;;;;;16.69;100.00;99431.00;5055708;28;20472;-89
2023/10/12 13:13:10;;;;;;;10.15;6.20;;;;;;;16.69;100.00;99423.09;5055565;28;20127;-89
2023/10/12 13:15:41;;;;;;;7.88;5.25;;;;;;;16.69;100.00;99420.47;5055603;28;20017;-89
2023/10/12 13:18:16;;;;;;;7.70;5.30;;;;;;;16.72;100.00;99427.28;5055415;28;20555;-88
2023/10/12 13:20:49;;;;;;;6.40;5.05;;;;;;;16.73;100.00;99426.38;5055347;28;20055;-89
2023/10/12 13:23:17;;;;;;;5.53;4.00;;;;;;;16.75;100.00;99445.50;5055376;28;20161;-89
2023/10/12 13:25:44;;;;;;;10.55;5.50;;;;;;;16.73;100.00;99444.78;5055463;28;20021;-89
2023/10/12 13:28:10;;;;;;;6.75;5.43;;;;;;;16.73;100.00;99443.91;5055182;28;20411;-89
2023/10/12 13:30:39;;;;;;;10.70;8.70;;;;;;;16.74;100.00;99443.00;5055277;28;20035;-89
2023/10/12 13:33:06;;;;;;;45.72;40.03;;;;;;;16.71;100.00;99444.00;5055373;28;20127;-89
2023/10/12 13:35:36;;;;;;;37.83;33.92;;;;;;;16.70;100.00;99440.56;5054810;28;20032;-89
2023/10/12 13:38:03;;;;;;;13.88;12.68;;;;;;;16.64;100.00;99434.91;5055368;28;20028;-89
2023/10/12 13:40:29;;;;;;;12.80;11.50;;;;;;;16.64;100.00;99443.66;5055110;28;20162;-89
2023/10/12 13:43:01;;;;;;;9.88;8.82;;;;;;;16.61;100.00;99445.66;5055204;28;20123;-88
2023/10/12 13:45:28;;;;;;;44.45;40.75;;;;;;;16.56;100.00;99445.16;5054916;28;20467;-89
2023/10/12 13:47:54;;;;;;;58.28;53.55;;;;;;;16.59;100.00;99452.81;5054947;28;20029;-89
2023/10/12 13:50:19;;;;;;;34.25;31.35;;;;;;;16.54;100.00;99445.28;5054822;28;20051;-88
2023/10/12 13:52:44;;;;;;;24.20;22.10;;;;;;;16.52;100.00;99451.59;5055065;28;20037;-88
2023/10/12 13:55:11;;;;;;;17.65;16.08;;;;;;;16.23;100.00;99409.94;5054429;28;20064;-88
2023/10/12 13:57:57;;;;;;;13.07;12.07;;;;;;;16.49;100.00;99460.56;5054985;28;20032;-89
2023/10/12 14:00:26;;;;;;;5.90;5.40;;;;;;;16.43;100.00;99453.97;5054671;28;20421;-88
2023/10/12 14:02:56;;;;;;;22.85;21.20;;;;;;;16.42;100.00;99462.78;5054873;28;20027;-88
2023/10/12 14:05:27;;;;;;;12.13;11.07;;;;;;;16.34;100.00;99448.53;5054485;28;20020;-89
2023/10/12 14:07:59;;;;;;;12.95;11.88;;;;;;;16.37;100.00;99451.78;5054681;28;20028;-88
2023/10/12 14:10:29;;;;;;;9.20;8.32;;;;;;;16.41;100.00;99460.28;5054344;28;20518;-88
2023/10/12 14:12:55;;;;;;;12.75;11.65;;;;;;;16.40;100.00;99459.44;5030130;28;20048;-88
2023/10/12 14:15:27;;;;;;;26.63;24.52;;;;;;;16.42;100.00;99459.31;5013246;28;20034;-88
2023/10/12 14:17:54;;;;;;;60.20;54.50;;;;;;;16.40;100.00;99474.38;5013448;28;20439;-88
2023/10/12 14:20:23;;;;;;;35.55;32.15;;;;;;;16.16;100.00;99440.22;5012585;28;20037;-88
2023/10/12 14:22:48;;;;;;;19.88;18.02;;;;;;;16.25;100.00;99460.56;5013317;28;20033;-88
2023/10/12 14:25:18;;;;;;;9.63;8.60;;;;;;;16.28;100.00;99476.13;5012965;28;20025;-88
2023/10/12 14:27:43;;;;;;;8.90;8.10;;;;;;;16.32;100.00;99487.25;5029757;28;20469;-88
2023/10/12 14:30:15;;;;;;;8.15;6.82;;;;;;;16.16;100.00;99472.59;5029772;28;20064;-88
2023/10/12 14:32:41;;;;;;;8.18;6.47;;;;;;;16.31;100.00;99493.47;5029663;28;20048;-88
2023/10/12 14:35:09;;;;;;;10.35;9.27;;;;;;;16.31;100.00;99488.22;5013117;28;20037;-88